sensor_id;sensor_type;location;lat;lon;timestamp;temperature;humidity
75994;DHT22;64680;53.800;9.988;2023-06-04T00:02:17;8.90;13.50
75994;DHT22;64680;53.800;9.988;2023-06-04T00:04:42;8.90;15.30
75994;DHT22;64680;53.800;9.988;2023-06-04T00:07:08;8.90;16.00
75994;DHT22;64680;53.800;9.988;2023-06-04T00:09:34;8.90;15.70
75994;DHT22;64680;53.800;9.988;2023-06-04T00:11:59;8.90;14.90
75994;DHT22;64680;53.800;9.988;2023-06-04T00:14:25;8.90;14.10
75994;DHT22;64680;53.800;9.988;2023-06-04T00:16:51;8.90;13.30
75994;DHT22;64680;53.800;9.988;2023-06-04T00:19:16;8.90;13.10
75994;DHT22;64680;53.800;9.988;2023-06-04T00:21:42;8.80;12.90
75994;DHT22;64680;53.800;9.988;2023-06-04T00:24:08;8.80;12.20
75994;DHT22;64680;53.800;9.988;2023-06-04T00:26:34;8.80;11.50
75994;DHT22;64680;53.800;9.988;2023-06-04T00:29:00;8.80;10.80
75994;DHT22;64680;53.800;9.988;2023-06-04T00:31:26;8.80;11.20
75994;DHT22;64680;53.800;9.988;2023-06-04T00:33:51;8.80;13.10
75994;DHT22;64680;53.800;9.988;2023-06-04T00:36:17;8.70;13.30
75994;DHT22;64680;53.800;9.988;2023-06-04T00:38:43;8.70;13.50
75994;DHT22;64680;53.800;9.988;2023-06-04T00:41:08;8.60;11.70
75994;DHT22;64680;53.800;9.988;2023-06-04T00:43:34;8.50;11.20
75994;DHT22;64680;53.800;9.988;2023-06-04T00:46:01;8.40;10.30
75994;DHT22;64680;53.800;9.988;2023-06-04T00:48:28;8.30;10.60
75994;DHT22;64680;53.800;9.988;2023-06-04T00:50:56;8.20;13.20
75994;DHT22;64680;53.800;9.988;2023-06-04T00:53:24;8.10;15.10
75994;DHT22;64680;53.800;9.988;2023-06-04T00:55:50;8.10;16.80
75994;DHT22;64680;53.800;9.988;2023-06-04T00:58:17;8.10;17.80
75994;DHT22;64680;53.800;9.988;2023-06-04T01:00:43;8.00;18.20
75994;DHT22;64680;53.800;9.988;2023-06-04T01:03:13;8.00;19.30
75994;DHT22;64680;53.800;9.988;2023-06-04T01:06:00;8.00;21.00
75994;DHT22;64680;53.800;9.988;2023-06-04T01:08:29;8.00;22.50
75994;DHT22;64680;53.800;9.988;2023-06-04T01:10:57;7.90;22.60
75994;DHT22;64680;53.800;9.988;2023-06-04T01:13:27;7.90;20.90
75994;DHT22;64680;53.800;9.988;2023-06-04T01:15:53;7.90;20.90
75994;DHT22;64680;53.800;9.988;2023-06-04T01:18:23;7.80;19.60
75994;DHT22;64680;53.800;9.988;2023-06-04T01:21:01;7.70;20.40
75994;DHT22;64680;53.800;9.988;2023-06-04T01:23:51;7.70;22.30
75994;DHT22;64680;53.800;9.988;2023-06-04T01:26:28;7.70;24.80
75994;DHT22;64680;53.800;9.988;2023-06-04T01:28:55;7.70;27.20
75994;DHT22;64680;53.800;9.988;2023-06-04T01:31:22;7.70;30.60
75994;DHT22;64680;53.800;9.988;2023-06-04T01:33:57;7.80;28.90
75994;DHT22;64680;53.800;9.988;2023-06-04T01:36:23;7.80;25.90
75994;DHT22;64680;53.800;9.988;2023-06-04T01:38:49;7.80;27.00
75994;DHT22;64680;53.800;9.988;2023-06-04T01:41:15;7.90;26.20
75994;DHT22;64680;53.800;9.988;2023-06-04T01:43:41;7.90;25.70
75994;DHT22;64680;53.800;9.988;2023-06-04T01:46:07;7.90;25.10
75994;DHT22;64680;53.800;9.988;2023-06-04T01:48:32;7.90;24.40
75994;DHT22;64680;53.800;9.988;2023-06-04T01:51:01;8.00;25.20
75994;DHT22;64680;53.800;9.988;2023-06-04T01:53:27;8.00;24.80
75994;DHT22;64680;53.800;9.988;2023-06-04T01:55:53;8.00;25.20
75994;DHT22;64680;53.800;9.988;2023-06-04T01:58:20;8.00;23.80
75994;DHT22;64680;53.800;9.988;2023-06-04T02:00:53;8.00;25.00
75994;DHT22;64680;53.800;9.988;2023-06-04T02:03:20;8.00;26.60
75994;DHT22;64680;53.800;9.988;2023-06-04T02:05:47;8.00;25.00
75994;DHT22;64680;53.800;9.988;2023-06-04T02:08:17;7.90;23.20
75994;DHT22;64680;53.800;9.988;2023-06-04T02:10:45;7.80;22.50
75994;DHT22;64680;53.800;9.988;2023-06-04T02:13:12;7.70;21.40
75994;DHT22;64680;53.800;9.988;2023-06-04T02:15:37;7.60;21.50
75994;DHT22;64680;53.800;9.988;2023-06-04T02:18:14;7.50;23.20
75994;DHT22;64680;53.800;9.988;2023-06-04T02:20:45;7.40;25.60
75994;DHT22;64680;53.800;9.988;2023-06-04T02:23:11;7.30;27.60
75994;DHT22;64680;53.800;9.988;2023-06-04T02:25:37;7.30;28.90
75994;DHT22;64680;53.800;9.988;2023-06-04T02:28:02;7.30;30.10
75994;DHT22;64680;53.800;9.988;2023-06-04T02:30:28;7.20;31.50
75994;DHT22;64680;53.800;9.988;2023-06-04T02:32:53;7.30;33.10
75994;DHT22;64680;53.800;9.988;2023-06-04T02:35:20;7.30;34.80
75994;DHT22;64680;53.800;9.988;2023-06-04T02:37:51;7.20;35.30
75994;DHT22;64680;53.800;9.988;2023-06-04T02:40:16;7.20;35.70
75994;DHT22;64680;53.800;9.988;2023-06-04T02:42:42;7.20;35.60
75994;DHT22;64680;53.800;9.988;2023-06-04T02:45:09;7.10;35.50
75994;DHT22;64680;53.800;9.988;2023-06-04T02:47:35;7.10;35.70
75994;DHT22;64680;53.800;9.988;2023-06-04T02:50:00;7.10;35.90
75994;DHT22;64680;53.800;9.988;2023-06-04T02:52:28;7.00;35.50
75994;DHT22;64680;53.800;9.988;2023-06-04T02:54:55;6.90;34.80
75994;DHT22;64680;53.800;9.988;2023-06-04T02:57:21;6.90;34.40
75994;DHT22;64680;53.800;9.988;2023-06-04T02:59:46;6.90;34.30
75994;DHT22;64680;53.800;9.988;2023-06-04T03:02:12;6.80;34.80
75994;DHT22;64680;53.800;9.988;2023-06-04T03:04:40;6.80;38.60
75994;DHT22;64680;53.800;9.988;2023-06-04T03:07:06;6.80;37.90
75994;DHT22;64680;53.800;9.988;2023-06-04T03:09:33;6.80;37.80
75994;DHT22;64680;53.800;9.988;2023-06-04T03:12:02;6.80;38.20
75994;DHT22;64680;53.800;9.988;2023-06-04T03:14:29;6.80;38.00
75994;DHT22;64680;53.800;9.988;2023-06-04T03:17:02;6.80;38.40
75994;DHT22;64680;53.800;9.988;2023-06-04T03:19:37;6.70;38.00
75994;DHT22;64680;53.800;9.988;2023-06-04T03:22:04;6.80;39.30
75994;DHT22;64680;53.800;9.988;2023-06-04T03:24:38;6.80;40.90
75994;DHT22;64680;53.800;9.988;2023-06-04T03:27:04;6.80;42.20
75994;DHT22;64680;53.800;9.988;2023-06-04T03:29:31;6.90;41.90
75994;DHT22;64680;53.800;9.988;2023-06-04T03:31:57;6.90;41.90
75994;DHT22;64680;53.800;9.988;2023-06-04T03:34:23;6.90;42.80
75994;DHT22;64680;53.800;9.988;2023-06-04T03:36:52;7.00;43.40
75994;DHT22;64680;53.800;9.988;2023-06-04T03:39:18;7.10;43.50
75994;DHT22;64680;53.800;9.988;2023-06-04T03:41:44;7.20;42.70
75994;DHT22;64680;53.800;9.988;2023-06-04T03:44:09;7.20;42.90
75994;DHT22;64680;53.800;9.988;2023-06-04T03:46:35;7.30;42.30
75994;DHT22;64680;53.800;9.988;2023-06-04T03:49:02;7.40;40.90
75994;DHT22;64680;53.800;9.988;2023-06-04T03:51:27;7.40;39.70
75994;DHT22;64680;53.800;9.988;2023-06-04T03:53:53;7.60;41.10
75994;DHT22;64680;53.800;9.988;2023-06-04T03:56:18;7.60;41.00
75994;DHT22;64680;53.800;9.988;2023-06-04T03:58:45;7.70;38.90
75994;DHT22;64680;53.800;9.988;2023-06-04T04:01:10;7.70;38.50
75994;DHT22;64680;53.800;9.988;2023-06-04T04:03:36;7.80;37.80
75994;DHT22;64680;53.800;9.988;2023-06-04T04:06:02;7.80;38.00
75994;DHT22;64680;53.800;9.988;2023-06-04T04:08:28;7.90;37.60
75994;DHT22;64680;53.800;9.988;2023-06-04T04:10:57;8.00;37.70
75994;DHT22;64680;53.800;9.988;2023-06-04T04:13:23;8.10;38.50
75994;DHT22;64680;53.800;9.988;2023-06-04T04:15:49;8.10;39.00
75994;DHT22;64680;53.800;9.988;2023-06-04T04:18:21;8.20;40.20
75994;DHT22;64680;53.800;9.988;2023-06-04T04:20:47;8.30;42.00
75994;DHT22;64680;53.800;9.988;2023-06-04T04:23:13;8.40;42.30
75994;DHT22;64680;53.800;9.988;2023-06-04T04:25:38;8.40;43.40
75994;DHT22;64680;53.800;9.988;2023-06-04T04:28:05;8.50;44.20
75994;DHT22;64680;53.800;9.988;2023-06-04T04:30:36;8.60;43.60
75994;DHT22;64680;53.800;9.988;2023-06-04T04:33:02;8.80;43.30
75994;DHT22;64680;53.800;9.988;2023-06-04T04:35:30;8.90;44.20
75994;DHT22;64680;53.800;9.988;2023-06-04T04:37:58;9.60;43.30
75994;DHT22;64680;53.800;9.988;2023-06-04T04:40:24;10.50;30.00
75994;DHT22;64680;53.800;9.988;2023-06-04T04:42:49;11.30;16.70
75994;DHT22;64680;53.800;9.988;2023-06-04T04:45:15;11.90;10.60
75994;DHT22;64680;53.800;9.988;2023-06-04T04:47:42;12.50;4.40
75994;DHT22;64680;53.800;9.988;2023-06-04T04:50:08;12.90;1.00
75994;DHT22;64680;53.800;9.988;2023-06-04T04:52:34;13.20;1.00
75994;DHT22;64680;53.800;9.988;2023-06-04T04:54:59;13.40;1.00
75994;DHT22;64680;53.800;9.988;2023-06-04T04:57:25;13.60;1.00
75994;DHT22;64680;53.800;9.988;2023-06-04T04:59:51;13.80;1.00
75994;DHT22;64680;53.800;9.988;2023-06-04T05:02:16;14.10;1.00
75994;DHT22;64680;53.800;9.988;2023-06-04T05:04:42;14.20;1.00
75994;DHT22;64680;53.800;9.988;2023-06-04T05:07:08;14.30;1.00
75994;DHT22;64680;53.800;9.988;2023-06-04T05:09:33;14.40;1.00
75994;DHT22;64680;53.800;9.988;2023-06-04T05:11:59;14.50;1.00
75994;DHT22;64680;53.800;9.988;2023-06-04T05:14:25;14.80;1.00
75994;DHT22;64680;53.800;9.988;2023-06-04T05:16:50;15.00;1.00
75994;DHT22;64680;53.800;9.988;2023-06-04T05:19:16;15.10;1.00
75994;DHT22;64680;53.800;9.988;2023-06-04T05:21:42;15.40;1.00
75994;DHT22;64680;53.800;9.988;2023-06-04T05:24:09;15.40;1.00
75994;DHT22;64680;53.800;9.988;2023-06-04T05:26:35;15.50;1.00
75994;DHT22;64680;53.800;9.988;2023-06-04T05:29:01;15.40;1.00
75994;DHT22;64680;53.800;9.988;2023-06-04T05:31:27;15.40;1.00
75994;DHT22;64680;53.800;9.988;2023-06-04T05:33:53;15.60;1.00
75994;DHT22;64680;53.800;9.988;2023-06-04T05:36:19;15.60;1.00
75994;DHT22;64680;53.800;9.988;2023-06-04T05:38:45;15.80;1.00
75994;DHT22;64680;53.800;9.988;2023-06-04T05:41:10;15.80;1.00
75994;DHT22;64680;53.800;9.988;2023-06-04T05:43:40;15.80;1.00
75994;DHT22;64680;53.800;9.988;2023-06-04T05:46:05;15.70;1.00
75994;DHT22;64680;53.800;9.988;2023-06-04T05:48:33;15.80;1.00
75994;DHT22;64680;53.800;9.988;2023-06-04T05:50:58;16.00;1.00
75994;DHT22;64680;53.800;9.988;2023-06-04T05:53:24;16.20;1.00
75994;DHT22;64680;53.800;9.988;2023-06-04T05:55:49;16.20;1.00
75994;DHT22;64680;53.800;9.988;2023-06-04T05:58:15;16.00;1.00
75994;DHT22;64680;53.800;9.988;2023-06-04T06:00:41;16.00;1.00
75994;DHT22;64680;53.800;9.988;2023-06-04T06:03:06;15.90;1.00
75994;DHT22;64680;53.800;9.988;2023-06-04T06:05:32;16.10;1.00
75994;DHT22;64680;53.800;9.988;2023-06-04T06:07:58;16.20;1.00
75994;DHT22;64680;53.800;9.988;2023-06-04T06:10:23;16.40;1.00
75994;DHT22;64680;53.800;9.988;2023-06-04T06:12:49;16.50;1.00
75994;DHT22;64680;53.800;9.988;2023-06-04T06:15:14;16.70;1.00
75994;DHT22;64680;53.800;9.988;2023-06-04T06:17:40;16.80;1.00
75994;DHT22;64680;53.800;9.988;2023-06-04T06:20:06;16.90;1.00
75994;DHT22;64680;53.800;9.988;2023-06-04T06:22:34;17.20;1.00
75994;DHT22;64680;53.800;9.988;2023-06-04T06:25:02;17.40;1.00
75994;DHT22;64680;53.800;9.988;2023-06-04T06:27:28;17.60;1.00
75994;DHT22;64680;53.800;9.988;2023-06-04T06:29:53;17.70;1.00
75994;DHT22;64680;53.800;9.988;2023-06-04T06:32:19;17.90;1.00
75994;DHT22;64680;53.800;9.988;2023-06-04T06:34:44;18.00;1.00
75994;DHT22;64680;53.800;9.988;2023-06-04T06:37:10;17.90;1.00
75994;DHT22;64680;53.800;9.988;2023-06-04T06:39:36;18.00;1.00
75994;DHT22;64680;53.800;9.988;2023-06-04T06:42:01;18.20;1.00
75994;DHT22;64680;53.800;9.988;2023-06-04T06:44:27;18.30;1.00
75994;DHT22;64680;53.800;9.988;2023-06-04T06:46:53;18.40;1.00
75994;DHT22;64680;53.800;9.988;2023-06-04T06:49:19;18.40;1.00
75994;DHT22;64680;53.800;9.988;2023-06-04T06:51:45;18.50;1.00
75994;DHT22;64680;53.800;9.988;2023-06-04T06:54:10;18.70;1.00
75994;DHT22;64680;53.800;9.988;2023-06-04T06:56:39;18.90;1.00
75994;DHT22;64680;53.800;9.988;2023-06-04T06:59:05;19.10;1.00
75994;DHT22;64680;53.800;9.988;2023-06-04T07:01:31;19.10;1.00
75994;DHT22;64680;53.800;9.988;2023-06-04T07:03:58;19.10;1.00
75994;DHT22;64680;53.800;9.988;2023-06-04T07:06:24;19.30;1.00
75994;DHT22;64680;53.800;9.988;2023-06-04T07:08:50;19.40;1.00
75994;DHT22;64680;53.800;9.988;2023-06-04T07:11:16;19.50;1.00
75994;DHT22;64680;53.800;9.988;2023-06-04T07:13:42;19.70;1.00
75994;DHT22;64680;53.800;9.988;2023-06-04T07:16:07;20.00;1.00
75994;DHT22;64680;53.800;9.988;2023-06-04T07:18:33;19.80;1.00
75994;DHT22;64680;53.800;9.988;2023-06-04T07:20:59;19.80;1.00
75994;DHT22;64680;53.800;9.988;2023-06-04T07:23:24;19.60;1.00
75994;DHT22;64680;53.800;9.988;2023-06-04T07:25:50;19.90;1.00
75994;DHT22;64680;53.800;9.988;2023-06-04T07:28:16;19.90;1.00
75994;DHT22;64680;53.800;9.988;2023-06-04T07:30:42;19.70;1.00
75994;DHT22;64680;53.800;9.988;2023-06-04T07:33:08;19.90;1.00
75994;DHT22;64680;53.800;9.988;2023-06-04T07:35:34;20.00;1.00
75994;DHT22;64680;53.800;9.988;2023-06-04T07:37:59;19.70;1.00
75994;DHT22;64680;53.800;9.988;2023-06-04T07:40:25;20.00;1.00
75994;DHT22;64680;53.800;9.988;2023-06-04T07:42:51;20.60;1.00
75994;DHT22;64680;53.800;9.988;2023-06-04T07:45:17;20.60;1.00
75994;DHT22;64680;53.800;9.988;2023-06-04T07:47:43;20.30;1.00
75994;DHT22;64680;53.800;9.988;2023-06-04T07:50:08;20.30;1.00
75994;DHT22;64680;53.800;9.988;2023-06-04T07:52:34;20.40;1.00
75994;DHT22;64680;53.800;9.988;2023-06-04T07:55:00;20.30;1.00
75994;DHT22;64680;53.800;9.988;2023-06-04T07:57:26;20.50;1.00
75994;DHT22;64680;53.800;9.988;2023-06-04T07:59:52;20.80;1.00
75994;DHT22;64680;53.800;9.988;2023-06-04T08:02:18;21.20;1.00
75994;DHT22;64680;53.800;9.988;2023-06-04T08:04:44;21.20;1.00
75994;DHT22;64680;53.800;9.988;2023-06-04T08:07:11;21.30;1.00
75994;DHT22;64680;53.800;9.988;2023-06-04T08:09:36;21.00;1.00
75994;DHT22;64680;53.800;9.988;2023-06-04T08:12:02;20.90;1.00
75994;DHT22;64680;53.800;9.988;2023-06-04T08:14:28;21.40;1.00
75994;DHT22;64680;53.800;9.988;2023-06-04T08:16:54;21.40;1.00
75994;DHT22;64680;53.800;9.988;2023-06-04T08:19:19;21.40;1.00
75994;DHT22;64680;53.800;9.988;2023-06-04T08:21:45;21.70;1.00
75994;DHT22;64680;53.800;9.988;2023-06-04T08:24:12;21.60;1.00
75994;DHT22;64680;53.800;9.988;2023-06-04T08:26:38;21.20;1.00
75994;DHT22;64680;53.800;9.988;2023-06-04T08:29:04;21.30;1.00
75994;DHT22;64680;53.800;9.988;2023-06-04T08:31:30;21.10;1.00
75994;DHT22;64680;53.800;9.988;2023-06-04T08:33:56;21.30;1.00
75994;DHT22;64680;53.800;9.988;2023-06-04T08:36:21;21.70;1.00
75994;DHT22;64680;53.800;9.988;2023-06-04T08:38:47;21.70;1.00
75994;DHT22;64680;53.800;9.988;2023-06-04T08:44:05;21.90;1.00
75994;DHT22;64680;53.800;9.988;2023-06-04T08:46:37;21.80;1.00
75994;DHT22;64680;53.800;9.988;2023-06-04T08:49:04;21.60;1.00
75994;DHT22;64680;53.800;9.988;2023-06-04T08:51:34;21.50;1.00
75994;DHT22;64680;53.800;9.988;2023-06-04T08:54:04;21.60;1.00
75994;DHT22;64680;53.800;9.988;2023-06-04T08:56:30;21.90;1.00
75994;DHT22;64680;53.800;9.988;2023-06-04T08:59:01;22.10;1.00
75994;DHT22;64680;53.800;9.988;2023-06-04T09:01:28;22.20;1.00
75994;DHT22;64680;53.800;9.988;2023-06-04T09:03:54;22.40;1.00
75994;DHT22;64680;53.800;9.988;2023-06-04T09:06:26;22.20;1.00
75994;DHT22;64680;53.800;9.988;2023-06-04T09:08:54;22.50;1.00
75994;DHT22;64680;53.800;9.988;2023-06-04T09:11:22;22.50;1.00
75994;DHT22;64680;53.800;9.988;2023-06-04T09:13:50;22.40;1.00
75994;DHT22;64680;53.800;9.988;2023-06-04T09:16:16;22.50;1.00
75994;DHT22;64680;53.800;9.988;2023-06-04T09:18:42;22.40;1.00
75994;DHT22;64680;53.800;9.988;2023-06-04T09:21:08;22.70;1.00
75994;DHT22;64680;53.800;9.988;2023-06-04T09:23:36;22.80;1.00
75994;DHT22;64680;53.800;9.988;2023-06-04T09:26:09;23.00;1.00
75994;DHT22;64680;53.800;9.988;2023-06-04T09:28:36;23.10;1.00
75994;DHT22;64680;53.800;9.988;2023-06-04T09:31:08;23.30;1.00
75994;DHT22;64680;53.800;9.988;2023-06-04T09:33:45;23.30;1.00
75994;DHT22;64680;53.800;9.988;2023-06-04T09:36:11;23.00;1.00
75994;DHT22;64680;53.800;9.988;2023-06-04T09:38:37;22.90;1.00
75994;DHT22;64680;53.800;9.988;2023-06-04T09:41:03;22.90;1.00
75994;DHT22;64680;53.800;9.988;2023-06-04T09:43:32;23.10;1.00
75994;DHT22;64680;53.800;9.988;2023-06-04T09:46:15;23.10;1.00
75994;DHT22;64680;53.800;9.988;2023-06-04T09:48:42;23.00;1.00
75994;DHT22;64680;53.800;9.988;2023-06-04T09:51:15;22.90;1.00
75994;DHT22;64680;53.800;9.988;2023-06-04T09:53:56;22.90;1.00
75994;DHT22;64680;53.800;9.988;2023-06-04T09:56:22;22.80;1.00
75994;DHT22;64680;53.800;9.988;2023-06-04T09:58:54;22.70;1.00
75994;DHT22;64680;53.800;9.988;2023-06-04T10:01:22;22.40;1.00
75994;DHT22;64680;53.800;9.988;2023-06-04T10:03:50;22.30;1.00
75994;DHT22;64680;53.800;9.988;2023-06-04T10:06:18;22.60;1.00
75994;DHT22;64680;53.800;9.988;2023-06-04T10:08:45;22.80;1.00
75994;DHT22;64680;53.800;9.988;2023-06-04T10:11:12;23.00;1.00
75994;DHT22;64680;53.800;9.988;2023-06-04T10:16:27;23.10;1.00
75994;DHT22;64680;53.800;9.988;2023-06-04T10:18:54;23.00;1.00
75994;DHT22;64680;53.800;9.988;2023-06-04T10:21:20;22.80;1.00
75994;DHT22;64680;53.800;9.988;2023-06-04T10:23:46;22.70;1.00
75994;DHT22;64680;53.800;9.988;2023-06-04T10:26:16;22.70;1.00
75994;DHT22;64680;53.800;9.988;2023-06-04T10:28:42;23.10;1.00
75994;DHT22;64680;53.800;9.988;2023-06-04T10:31:09;23.00;1.00
75994;DHT22;64680;53.800;9.988;2023-06-04T10:33:35;23.30;1.00
75994;DHT22;64680;53.800;9.988;2023-06-04T10:36:18;23.30;1.00
75994;DHT22;64680;53.800;9.988;2023-06-04T10:38:49;23.30;1.00
75994;DHT22;64680;53.800;9.988;2023-06-04T10:41:16;23.50;1.00
75994;DHT22;64680;53.800;9.988;2023-06-04T10:43:46;23.50;1.00
75994;DHT22;64680;53.800;9.988;2023-06-04T10:46:13;23.70;1.00
75994;DHT22;64680;53.800;9.988;2023-06-04T10:48:49;23.70;1.00
75994;DHT22;64680;53.800;9.988;2023-06-04T10:51:16;23.80;1.00
75994;DHT22;64680;53.800;9.988;2023-06-04T10:53:53;23.90;1.00
75994;DHT22;64680;53.800;9.988;2023-06-04T10:56:30;23.90;1.00
75994;DHT22;64680;53.800;9.988;2023-06-04T10:58:58;23.70;1.00
75994;DHT22;64680;53.800;9.988;2023-06-04T11:01:28;23.60;1.00
75994;DHT22;64680;53.800;9.988;2023-06-04T11:03:57;23.50;1.00
75994;DHT22;64680;53.800;9.988;2023-06-04T11:06:23;23.60;1.00
75994;DHT22;64680;53.800;9.988;2023-06-04T11:09:02;23.40;1.00
75994;DHT22;64680;53.800;9.988;2023-06-04T11:11:27;23.40;1.00
75994;DHT22;64680;53.800;9.988;2023-06-04T11:13:53;23.30;1.00
75994;DHT22;64680;53.800;9.988;2023-06-04T11:16:20;23.20;1.00
75994;DHT22;64680;53.800;9.988;2023-06-04T11:18:56;23.30;1.00
75994;DHT22;64680;53.800;9.988;2023-06-04T11:21:22;23.30;1.00
75994;DHT22;64680;53.800;9.988;2023-06-04T11:23:49;23.60;1.00
75994;DHT22;64680;53.800;9.988;2023-06-04T11:26:14;23.70;1.00
75994;DHT22;64680;53.800;9.988;2023-06-04T11:28:40;23.80;1.00
75994;DHT22;64680;53.800;9.988;2023-06-04T11:31:06;23.80;1.00
75994;DHT22;64680;53.800;9.988;2023-06-04T11:33:43;23.80;1.00
75994;DHT22;64680;53.800;9.988;2023-06-04T11:36:09;23.70;1.00
75994;DHT22;64680;53.800;9.988;2023-06-04T11:38:35;23.80;1.00
75994;DHT22;64680;53.800;9.988;2023-06-04T11:41:02;23.80;1.00
75994;DHT22;64680;53.800;9.988;2023-06-04T11:43:30;23.80;1.00
75994;DHT22;64680;53.800;9.988;2023-06-04T11:45:58;23.70;1.00
75994;DHT22;64680;53.800;9.988;2023-06-04T11:48:23;23.70;1.00
75994;DHT22;64680;53.800;9.988;2023-06-04T11:50:49;23.70;1.00
75994;DHT22;64680;53.800;9.988;2023-06-04T11:53:15;23.30;1.00
75994;DHT22;64680;53.800;9.988;2023-06-04T11:55:44;23.10;1.00
75994;DHT22;64680;53.800;9.988;2023-06-04T11:58:10;23.20;1.00
75994;DHT22;64680;53.800;9.988;2023-06-04T12:00:36;23.00;1.00
75994;DHT22;64680;53.800;9.988;2023-06-04T12:03:02;23.00;1.00
75994;DHT22;64680;53.800;9.988;2023-06-04T12:05:31;23.20;1.00
75994;DHT22;64680;53.800;9.988;2023-06-04T12:08:07;23.30;1.00
75994;DHT22;64680;53.800;9.988;2023-06-04T12:10:38;23.50;1.00
75994;DHT22;64680;53.800;9.988;2023-06-04T12:13:04;23.50;1.00
75994;DHT22;64680;53.800;9.988;2023-06-04T12:15:29;23.50;1.00
75994;DHT22;64680;53.800;9.988;2023-06-04T12:17:55;23.50;1.00
75994;DHT22;64680;53.800;9.988;2023-06-04T12:20:39;23.60;1.00
75994;DHT22;64680;53.800;9.988;2023-06-04T12:23:06;23.70;1.00
75994;DHT22;64680;53.800;9.988;2023-06-04T12:25:32;23.70;1.00
75994;DHT22;64680;53.800;9.988;2023-06-04T12:27:58;23.50;1.00
75994;DHT22;64680;53.800;9.988;2023-06-04T12:30:38;23.60;1.00
75994;DHT22;64680;53.800;9.988;2023-06-04T12:33:04;23.70;1.00
75994;DHT22;64680;53.800;9.988;2023-06-04T12:35:29;23.90;1.00
75994;DHT22;64680;53.800;9.988;2023-06-04T12:37:55;23.80;1.00
75994;DHT22;64680;53.800;9.988;2023-06-04T12:40:21;23.80;1.00
75994;DHT22;64680;53.800;9.988;2023-06-04T12:42:50;23.70;1.00
75994;DHT22;64680;53.800;9.988;2023-06-04T12:45:15;23.70;1.00
75994;DHT22;64680;53.800;9.988;2023-06-04T12:47:41;23.60;1.00
75994;DHT22;64680;53.800;9.988;2023-06-04T12:50:07;23.50;1.00
75994;DHT22;64680;53.800;9.988;2023-06-04T12:52:33;23.20;1.00
75994;DHT22;64680;53.800;9.988;2023-06-04T12:54:59;23.30;1.00
75994;DHT22;64680;53.800;9.988;2023-06-04T12:57:24;23.20;1.00
75994;DHT22;64680;53.800;9.988;2023-06-04T12:59:50;23.40;1.00
75994;DHT22;64680;53.800;9.988;2023-06-04T13:02:16;23.30;1.00
75994;DHT22;64680;53.800;9.988;2023-06-04T13:04:42;23.30;1.00
75994;DHT22;64680;53.800;9.988;2023-06-04T13:07:09;23.40;1.00
75994;DHT22;64680;53.800;9.988;2023-06-04T13:09:35;23.50;1.00
75994;DHT22;64680;53.800;9.988;2023-06-04T13:12:01;23.50;1.00
75994;DHT22;64680;53.800;9.988;2023-06-04T13:14:27;23.50;1.00
75994;DHT22;64680;53.800;9.988;2023-06-04T13:16:52;23.50;1.00
75994;DHT22;64680;53.800;9.988;2023-06-04T13:19:18;23.40;1.00
75994;DHT22;64680;53.800;9.988;2023-06-04T13:21:47;23.30;1.00
75994;DHT22;64680;53.800;9.988;2023-06-04T13:24:12;23.20;1.00
75994;DHT22;64680;53.800;9.988;2023-06-04T13:26:38;23.20;1.00
75994;DHT22;64680;53.800;9.988;2023-06-04T13:29:04;23.30;1.00
75994;DHT22;64680;53.800;9.988;2023-06-04T13:31:30;23.00;1.00
75994;DHT22;64680;53.800;9.988;2023-06-04T13:33:56;23.10;1.00
75994;DHT22;64680;53.800;9.988;2023-06-04T13:36:21;23.10;1.00
75994;DHT22;64680;53.800;9.988;2023-06-04T13:38:47;23.00;1.00
75994;DHT22;64680;53.800;9.988;2023-06-04T13:41:12;22.90;1.00
75994;DHT22;64680;53.800;9.988;2023-06-04T13:43:38;22.90;1.00
75994;DHT22;64680;53.800;9.988;2023-06-04T13:46:04;23.10;1.00
75994;DHT22;64680;53.800;9.988;2023-06-04T13:48:30;23.20;1.00
75994;DHT22;64680;53.800;9.988;2023-06-04T13:50:56;23.10;1.00
75994;DHT22;64680;53.800;9.988;2023-06-04T13:53:22;23.00;1.00
75994;DHT22;64680;53.800;9.988;2023-06-04T13:55:47;22.90;1.00
75994;DHT22;64680;53.800;9.988;2023-06-04T13:58:13;23.00;1.00
75994;DHT22;64680;53.800;9.988;2023-06-04T14:00:40;23.00;1.00
75994;DHT22;64680;53.800;9.988;2023-06-04T14:03:06;22.80;1.00
75994;DHT22;64680;53.800;9.988;2023-06-04T14:05:31;22.80;1.00
75994;DHT22;64680;53.800;9.988;2023-06-04T14:07:57;22.80;1.00
75994;DHT22;64680;53.800;9.988;2023-06-04T14:10:23;22.80;1.00
75994;DHT22;64680;53.800;9.988;2023-06-04T14:12:49;22.90;1.00
75994;DHT22;64680;53.800;9.988;2023-06-04T14:15:14;22.80;1.00
75994;DHT22;64680;53.800;9.988;2023-06-04T14:17:40;22.80;1.00
75994;DHT22;64680;53.800;9.988;2023-06-04T14:20:06;22.70;1.00
75994;DHT22;64680;53.800;9.988;2023-06-04T14:22:36;22.70;1.00
75994;DHT22;64680;53.800;9.988;2023-06-04T14:25:03;22.80;1.00
75994;DHT22;64680;53.800;9.988;2023-06-04T14:27:29;22.70;1.00
75994;DHT22;64680;53.800;9.988;2023-06-04T14:29:55;22.60;1.00
75994;DHT22;64680;53.800;9.988;2023-06-04T14:32:21;22.50;1.00
75994;DHT22;64680;53.800;9.988;2023-06-04T14:34:47;22.70;1.00
75994;DHT22;64680;53.800;9.988;2023-06-04T14:37:12;22.70;1.00
75994;DHT22;64680;53.800;9.988;2023-06-04T14:39:38;22.50;1.00
75994;DHT22;64680;53.800;9.988;2023-06-04T14:42:04;22.50;1.00
75994;DHT22;64680;53.800;9.988;2023-06-04T14:44:30;22.30;1.00
75994;DHT22;64680;53.800;9.988;2023-06-04T14:46:55;22.20;1.00
75994;DHT22;64680;53.800;9.988;2023-06-04T14:49:21;22.20;1.00
75994;DHT22;64680;53.800;9.988;2023-06-04T14:51:47;22.10;1.00
75994;DHT22;64680;53.800;9.988;2023-06-04T14:54:12;22.20;1.00
75994;DHT22;64680;53.800;9.988;2023-06-04T14:56:38;22.20;1.00
75994;DHT22;64680;53.800;9.988;2023-06-04T14:59:04;22.20;1.00
75994;DHT22;64680;53.800;9.988;2023-06-04T15:01:38;22.20;1.00
75994;DHT22;64680;53.800;9.988;2023-06-04T15:04:04;22.00;1.00
75994;DHT22;64680;53.800;9.988;2023-06-04T15:06:30;21.90;1.00
75994;DHT22;64680;53.800;9.988;2023-06-04T15:08:55;21.80;1.00
75994;DHT22;64680;53.800;9.988;2023-06-04T15:11:21;21.60;1.00
75994;DHT22;64680;53.800;9.988;2023-06-04T15:13:47;21.50;1.00
75994;DHT22;64680;53.800;9.988;2023-06-04T15:16:12;21.50;1.00
75994;DHT22;64680;53.800;9.988;2023-06-04T15:18:38;21.40;1.00
75994;DHT22;64680;53.800;9.988;2023-06-04T15:21:04;21.60;1.00
75994;DHT22;64680;53.800;9.988;2023-06-04T15:23:29;21.70;1.00
75994;DHT22;64680;53.800;9.988;2023-06-04T15:25:55;21.80;1.00
75994;DHT22;64680;53.800;9.988;2023-06-04T15:28:21;21.60;1.00
75994;DHT22;64680;53.800;9.988;2023-06-04T15:30:46;21.50;1.00
75994;DHT22;64680;53.800;9.988;2023-06-04T15:33:12;21.40;1.00
75994;DHT22;64680;53.800;9.988;2023-06-04T15:35:37;21.20;1.00
75994;DHT22;64680;53.800;9.988;2023-06-04T15:38:03;21.00;1.00
75994;DHT22;64680;53.800;9.988;2023-06-04T15:40:28;21.00;1.00
75994;DHT22;64680;53.800;9.988;2023-06-04T15:42:54;21.00;1.00
75994;DHT22;64680;53.800;9.988;2023-06-04T15:45:20;20.90;1.00
75994;DHT22;64680;53.800;9.988;2023-06-04T15:47:52;20.80;1.00
75994;DHT22;64680;53.800;9.988;2023-06-04T15:50:18;20.80;1.00